sensor_id;sensor_type;location;lat;lon;timestamp;temperature;humidity
108;DHT22;49;48.530;9.200;2022-08-04T00:01:34;26.60;1.00
108;DHT22;49;48.530;9.200;2022-08-04T00:04:10;26.50;1.00
108;DHT22;49;48.530;9.200;2022-08-04T00:06:47;26.60;1.00
108;DHT22;49;48.530;9.200;2022-08-04T00:09:29;26.60;1.00
108;DHT22;49;48.530;9.200;2022-08-04T00:12:00;26.50;1.00
108;DHT22;49;48.530;9.200;2022-08-04T00:14:31;26.60;1.00
108;DHT22;49;48.530;9.200;2022-08-04T00:17:03;26.60;1.00
108;DHT22;49;48.530;9.200;2022-08-04T00:19:38;26.50;1.00
108;DHT22;49;48.530;9.200;2022-08-04T00:22:09;26.60;1.00
108;DHT22;49;48.530;9.200;2022-08-04T00:24:36;26.70;1.00
108;DHT22;49;48.530;9.200;2022-08-04T00:27:06;26.60;1.00
108;DHT22;49;48.530;9.200;2022-08-04T00:29:34;26.60;1.00
108;DHT22;49;48.530;9.200;2022-08-04T00:32:05;26.70;1.00
108;DHT22;49;48.530;9.200;2022-08-04T00:34:33;26.70;1.00
108;DHT22;49;48.530;9.200;2022-08-04T00:37:00;26.70;1.00
108;DHT22;49;48.530;9.200;2022-08-04T00:39:27;26.70;1.00
108;DHT22;49;48.530;9.200;2022-08-04T00:42:20;26.60;1.00
108;DHT22;49;48.530;9.200;2022-08-04T00:48:03;26.50;1.00
108;DHT22;49;48.530;9.200;2022-08-04T00:50:43;26.60;1.00
108;DHT22;49;48.530;9.200;2022-08-04T00:53:16;26.60;1.00
108;DHT22;49;48.530;9.200;2022-08-04T00:56:21;26.60;1.00
108;DHT22;49;48.530;9.200;2022-08-04T00:59:02;26.40;1.00
108;DHT22;49;48.530;9.200;2022-08-04T01:01:47;26.30;1.00
108;DHT22;49;48.530;9.200;2022-08-04T01:04:26;26.20;1.00
108;DHT22;49;48.530;9.200;2022-08-04T01:07:14;26.10;1.00
108;DHT22;49;48.530;9.200;2022-08-04T01:09:52;25.70;1.00
108;DHT22;49;48.530;9.200;2022-08-04T01:12:53;25.70;1.00
108;DHT22;49;48.530;9.200;2022-08-04T01:15:35;25.30;1.00
108;DHT22;49;48.530;9.200;2022-08-04T01:18:06;25.40;1.00
108;DHT22;49;48.530;9.200;2022-08-04T01:20:41;25.60;1.00
108;DHT22;49;48.530;9.200;2022-08-04T01:23:48;25.70;1.00
108;DHT22;49;48.530;9.200;2022-08-04T01:26:42;25.80;1.00
108;DHT22;49;48.530;9.200;2022-08-04T01:29:14;25.90;1.00
108;DHT22;49;48.530;9.200;2022-08-04T01:32:02;26.00;1.00
108;DHT22;49;48.530;9.200;2022-08-04T01:34:34;26.10;1.00
108;DHT22;49;48.530;9.200;2022-08-04T01:37:08;26.20;1.00
108;DHT22;49;48.530;9.200;2022-08-04T01:39:44;26.20;1.00
108;DHT22;49;48.530;9.200;2022-08-04T01:42:17;26.10;1.00
108;DHT22;49;48.530;9.200;2022-08-04T01:44:47;25.70;1.00
108;DHT22;49;48.530;9.200;2022-08-04T01:47:20;25.40;1.00
108;DHT22;49;48.530;9.200;2022-08-04T01:49:49;25.40;1.00
108;DHT22;49;48.530;9.200;2022-08-04T01:52:17;25.30;1.00
108;DHT22;49;48.530;9.200;2022-08-04T01:54:45;25.30;1.00
108;DHT22;49;48.530;9.200;2022-08-04T01:57:16;25.10;1.00
108;DHT22;49;48.530;9.200;2022-08-04T01:59:49;25.20;1.00
108;DHT22;49;48.530;9.200;2022-08-04T02:02:17;25.30;1.00
108;DHT22;49;48.530;9.200;2022-08-04T02:04:44;25.50;1.00
108;DHT22;49;48.530;9.200;2022-08-04T02:07:31;25.50;1.00
108;DHT22;49;48.530;9.200;2022-08-04T02:10:06;25.30;1.00
108;DHT22;49;48.530;9.200;2022-08-04T02:12:46;25.10;1.00
108;DHT22;49;48.530;9.200;2022-08-04T02:15:26;25.20;1.00
108;DHT22;49;48.530;9.200;2022-08-04T02:18:01;25.40;1.00
108;DHT22;49;48.530;9.200;2022-08-04T02:20:32;25.30;1.00
108;DHT22;49;48.530;9.200;2022-08-04T02:23:02;25.30;1.00
108;DHT22;49;48.530;9.200;2022-08-04T02:25:36;25.20;1.00
108;DHT22;49;48.530;9.200;2022-08-04T02:28:17;25.30;1.00
108;DHT22;49;48.530;9.200;2022-08-04T02:33:38;25.20;1.00
108;DHT22;49;48.530;9.200;2022-08-04T02:36:09;25.30;1.00
108;DHT22;49;48.530;9.200;2022-08-04T02:38:51;25.30;1.00
108;DHT22;49;48.530;9.200;2022-08-04T02:41:22;25.30;1.00
108;DHT22;49;48.530;9.200;2022-08-04T02:43:54;25.30;1.00
108;DHT22;49;48.530;9.200;2022-08-04T02:46:24;25.30;1.00
108;DHT22;49;48.530;9.200;2022-08-04T02:48:52;25.30;1.00
108;DHT22;49;48.530;9.200;2022-08-04T02:51:23;25.40;1.00
108;DHT22;49;48.530;9.200;2022-08-04T02:53:54;25.50;1.00
108;DHT22;49;48.530;9.200;2022-08-04T02:56:22;25.50;1.00
108;DHT22;49;48.530;9.200;2022-08-04T02:58:52;25.30;1.00
108;DHT22;49;48.530;9.200;2022-08-04T03:01:20;25.20;1.00
108;DHT22;49;48.530;9.200;2022-08-04T03:03:55;25.10;1.00
108;DHT22;49;48.530;9.200;2022-08-04T03:06:47;25.10;1.00
108;DHT22;49;48.530;9.200;2022-08-04T03:12:55;25.10;1.00
108;DHT22;49;48.530;9.200;2022-08-04T03:15:40;25.00;1.00
108;DHT22;49;48.530;9.200;2022-08-04T03:21:44;24.40;1.00
108;DHT22;49;48.530;9.200;2022-08-04T03:24:35;24.10;1.00
108;DHT22;49;48.530;9.200;2022-08-04T03:27:23;23.70;1.00
108;DHT22;49;48.530;9.200;2022-08-04T03:30:06;23.40;1.00
108;DHT22;49;48.530;9.200;2022-08-04T03:33:15;23.50;1.00
108;DHT22;49;48.530;9.200;2022-08-04T03:39:02;23.70;1.00
108;DHT22;49;48.530;9.200;2022-08-04T03:41:54;23.20;1.00
108;DHT22;49;48.530;9.200;2022-08-04T03:48:03;22.30;1.00
108;DHT22;49;48.530;9.200;2022-08-04T03:54:01;21.90;1.00
108;DHT22;49;48.530;9.200;2022-08-04T03:56:58;22.10;1.00
108;DHT22;49;48.530;9.200;2022-08-04T03:59:48;22.10;1.00
108;DHT22;49;48.530;9.200;2022-08-04T04:06:12;22.50;1.00
108;DHT22;49;48.530;9.200;2022-08-04T04:09:22;23.00;1.00
108;DHT22;49;48.530;9.200;2022-08-04T04:15:23;23.60;1.00
108;DHT22;49;48.530;9.200;2022-08-04T04:18:16;23.90;1.00
108;DHT22;49;48.530;9.200;2022-08-04T04:21:13;23.80;1.00
108;DHT22;49;48.530;9.200;2022-08-04T04:24:15;23.70;1.00
108;DHT22;49;48.530;9.200;2022-08-04T04:26:56;23.80;1.00
108;DHT22;49;48.530;9.200;2022-08-04T04:29:37;24.00;1.00
108;DHT22;49;48.530;9.200;2022-08-04T04:32:21;24.30;1.00
108;DHT22;49;48.530;9.200;2022-08-04T04:38:16;24.10;1.00
108;DHT22;49;48.530;9.200;2022-08-04T04:40:58;24.00;1.00
108;DHT22;49;48.530;9.200;2022-08-04T04:43:49;23.70;1.00
108;DHT22;49;48.530;9.200;2022-08-04T04:46:29;23.60;1.00
108;DHT22;49;48.530;9.200;2022-08-04T04:49:07;23.60;1.00
108;DHT22;49;48.530;9.200;2022-08-04T04:51:42;23.50;1.00
108;DHT22;49;48.530;9.200;2022-08-04T04:54:17;23.20;1.00
108;DHT22;49;48.530;9.200;2022-08-04T04:56:50;23.10;1.00
108;DHT22;49;48.530;9.200;2022-08-04T04:59:23;23.00;1.00
108;DHT22;49;48.530;9.200;2022-08-04T05:02:06;23.10;1.00
108;DHT22;49;48.530;9.200;2022-08-04T05:05:12;23.40;1.00
108;DHT22;49;48.530;9.200;2022-08-04T05:08:07;23.60;1.00
108;DHT22;49;48.530;9.200;2022-08-04T05:10:50;23.70;1.00
108;DHT22;49;48.530;9.200;2022-08-04T05:13:37;23.50;1.00
108;DHT22;49;48.530;9.200;2022-08-04T05:16:18;23.80;1.00
108;DHT22;49;48.530;9.200;2022-08-04T05:18:51;23.90;1.00
108;DHT22;49;48.530;9.200;2022-08-04T05:21:36;24.10;1.00
108;DHT22;49;48.530;9.200;2022-08-04T05:24:08;24.40;1.00
108;DHT22;49;48.530;9.200;2022-08-04T05:26:39;24.70;1.00
108;DHT22;49;48.530;9.200;2022-08-04T05:29:10;25.00;1.00
108;DHT22;49;48.530;9.200;2022-08-04T05:31:42;24.90;1.00
108;DHT22;49;48.530;9.200;2022-08-04T05:34:14;25.10;1.00
108;DHT22;49;48.530;9.200;2022-08-04T05:36:45;25.50;1.00
108;DHT22;49;48.530;9.200;2022-08-04T05:39:18;25.60;1.00
108;DHT22;49;48.530;9.200;2022-08-04T05:41:47;25.80;1.00
108;DHT22;49;48.530;9.200;2022-08-04T05:44:16;26.80;1.00
108;DHT22;49;48.530;9.200;2022-08-04T05:46:47;28.50;1.00
108;DHT22;49;48.530;9.200;2022-08-04T05:49:16;30.20;1.00
108;DHT22;49;48.530;9.200;2022-08-04T05:51:45;31.80;1.00
108;DHT22;49;48.530;9.200;2022-08-04T05:54:13;32.60;1.00
108;DHT22;49;48.530;9.200;2022-08-04T05:56:41;33.80;1.00
108;DHT22;49;48.530;9.200;2022-08-04T05:59:10;35.00;1.00
108;DHT22;49;48.530;9.200;2022-08-04T06:01:39;35.40;1.00
108;DHT22;49;48.530;9.200;2022-08-04T06:04:08;35.90;1.00
108;DHT22;49;48.530;9.200;2022-08-04T06:06:36;36.60;1.00
108;DHT22;49;48.530;9.200;2022-08-04T06:09:04;37.10;1.00
108;DHT22;49;48.530;9.200;2022-08-04T06:11:32;37.50;1.00
108;DHT22;49;48.530;9.200;2022-08-04T06:14:05;38.10;1.00
108;DHT22;49;48.530;9.200;2022-08-04T06:16:36;38.10;1.00
108;DHT22;49;48.530;9.200;2022-08-04T06:19:06;38.10;1.00
108;DHT22;49;48.530;9.200;2022-08-04T06:21:38;38.40;1.00
108;DHT22;49;48.530;9.200;2022-08-04T06:24:11;38.90;1.00
108;DHT22;49;48.530;9.200;2022-08-04T06:26:39;38.90;1.00
108;DHT22;49;48.530;9.200;2022-08-04T06:29:06;39.30;1.00
108;DHT22;49;48.530;9.200;2022-08-04T06:31:41;39.10;1.00
108;DHT22;49;48.530;9.200;2022-08-04T06:34:13;39.40;1.00
108;DHT22;49;48.530;9.200;2022-08-04T06:36:43;39.50;1.00
108;DHT22;49;48.530;9.200;2022-08-04T06:39:11;39.80;1.00
108;DHT22;49;48.530;9.200;2022-08-04T06:41:38;39.60;1.00
108;DHT22;49;48.530;9.200;2022-08-04T06:44:08;39.00;1.00
108;DHT22;49;48.530;9.200;2022-08-04T06:46:39;38.10;1.00
108;DHT22;49;48.530;9.200;2022-08-04T06:49:07;38.10;1.00
108;DHT22;49;48.530;9.200;2022-08-04T06:51:36;38.90;1.00
108;DHT22;49;48.530;9.200;2022-08-04T06:54:04;39.20;1.00
108;DHT22;49;48.530;9.200;2022-08-04T06:56:33;39.70;1.00
108;DHT22;49;48.530;9.200;2022-08-04T06:59:02;40.00;1.00
108;DHT22;49;48.530;9.200;2022-08-04T07:01:30;40.60;1.00
108;DHT22;49;48.530;9.200;2022-08-04T07:03:59;40.70;1.00
108;DHT22;49;48.530;9.200;2022-08-04T07:06:26;40.70;1.00
108;DHT22;49;48.530;9.200;2022-08-04T07:08:53;41.00;1.00
108;DHT22;49;48.530;9.200;2022-08-04T07:11:22;41.00;1.00
108;DHT22;49;48.530;9.200;2022-08-04T07:13:50;41.60;1.00
108;DHT22;49;48.530;9.200;2022-08-04T07:16:19;42.50;1.00
108;DHT22;49;48.530;9.200;2022-08-04T07:18:47;41.90;1.00
108;DHT22;49;48.530;9.200;2022-08-04T07:21:20;42.00;1.00
108;DHT22;49;48.530;9.200;2022-08-04T07:23:47;41.90;1.00
108;DHT22;49;48.530;9.200;2022-08-04T07:26:14;41.90;1.00
108;DHT22;49;48.530;9.200;2022-08-04T07:28:45;42.20;1.00
108;DHT22;49;48.530;9.200;2022-08-04T07:31:15;42.80;1.00
108;DHT22;49;48.530;9.200;2022-08-04T07:33:43;43.40;1.00
108;DHT22;49;48.530;9.200;2022-08-04T07:36:11;43.00;1.00
108;DHT22;49;48.530;9.200;2022-08-04T07:38:40;43.00;1.00
108;DHT22;49;48.530;9.200;2022-08-04T07:41:07;43.10;1.00
108;DHT22;49;48.530;9.200;2022-08-04T07:43:35;43.10;1.00
108;DHT22;49;48.530;9.200;2022-08-04T07:46:04;43.50;1.00
108;DHT22;49;48.530;9.200;2022-08-04T07:48:31;43.90;1.00
108;DHT22;49;48.530;9.200;2022-08-04T07:50:58;43.80;1.00
108;DHT22;49;48.530;9.200;2022-08-04T07:53:26;43.20;1.00
108;DHT22;49;48.530;9.200;2022-08-04T07:55:54;43.60;1.00
108;DHT22;49;48.530;9.200;2022-08-04T07:58:21;43.30;1.00
108;DHT22;49;48.530;9.200;2022-08-04T08:00:48;43.50;1.00
108;DHT22;49;48.530;9.200;2022-08-04T08:03:18;43.80;1.00
108;DHT22;49;48.530;9.200;2022-08-04T08:05:45;44.00;1.00
108;DHT22;49;48.530;9.200;2022-08-04T08:08:12;43.60;1.00
108;DHT22;49;48.530;9.200;2022-08-04T08:10:45;43.40;1.00
108;DHT22;49;48.530;9.200;2022-08-04T08:13:12;43.50;1.00
108;DHT22;49;48.530;9.200;2022-08-04T08:15:40;44.00;1.00
108;DHT22;49;48.530;9.200;2022-08-04T08:18:10;43.70;1.00
108;DHT22;49;48.530;9.200;2022-08-04T08:20:38;43.20;1.00
108;DHT22;49;48.530;9.200;2022-08-04T08:23:07;43.00;1.00
108;DHT22;49;48.530;9.200;2022-08-04T08:25:34;43.10;1.00
108;DHT22;49;48.530;9.200;2022-08-04T08:28:03;42.70;1.00
108;DHT22;49;48.530;9.200;2022-08-04T08:30:31;42.80;1.00
108;DHT22;49;48.530;9.200;2022-08-04T08:33:00;42.50;1.00
108;DHT22;49;48.530;9.200;2022-08-04T08:35:43;42.50;1.00
108;DHT22;49;48.530;9.200;2022-08-04T08:38:13;42.60;1.00
108;DHT22;49;48.530;9.200;2022-08-04T08:40:47;42.20;1.00
108;DHT22;49;48.530;9.200;2022-08-04T08:43:30;42.80;1.00
108;DHT22;49;48.530;9.200;2022-08-04T08:46:24;43.20;1.00
108;DHT22;49;48.530;9.200;2022-08-04T08:49:21;43.30;1.00
108;DHT22;49;48.530;9.200;2022-08-04T08:52:03;43.10;1.00
108;DHT22;49;48.530;9.200;2022-08-04T08:54:55;42.80;1.00
108;DHT22;49;48.530;9.200;2022-08-04T08:57:45;42.40;1.00
108;DHT22;49;48.530;9.200;2022-08-04T09:00:19;42.20;1.00
108;DHT22;49;48.530;9.200;2022-08-04T09:12:13;42.50;1.00
108;DHT22;49;48.530;9.200;2022-08-04T09:14:47;42.30;1.00
108;DHT22;49;48.530;9.200;2022-08-04T09:17:22;42.30;1.00
108;DHT22;49;48.530;9.200;2022-08-04T09:19:58;41.70;1.00
108;DHT22;49;48.530;9.200;2022-08-04T09:22:35;41.30;1.00
108;DHT22;49;48.530;9.200;2022-08-04T09:25:11;41.20;1.00
108;DHT22;49;48.530;9.200;2022-08-04T09:27:46;40.70;1.00
108;DHT22;49;48.530;9.200;2022-08-04T09:30:18;40.30;1.00
108;DHT22;49;48.530;9.200;2022-08-04T09:33:03;40.20;1.00
108;DHT22;49;48.530;9.200;2022-08-04T09:35:40;40.20;1.00
108;DHT22;49;48.530;9.200;2022-08-04T09:38:17;39.90;1.00
108;DHT22;49;48.530;9.200;2022-08-04T09:40:55;39.80;1.00
108;DHT22;49;48.530;9.200;2022-08-04T09:43:34;39.80;1.00
108;DHT22;49;48.530;9.200;2022-08-04T09:46:07;39.40;1.00
108;DHT22;49;48.530;9.200;2022-08-04T09:48:43;39.80;1.00
108;DHT22;49;48.530;9.200;2022-08-04T09:51:24;40.00;1.00
108;DHT22;49;48.530;9.200;2022-08-04T09:54:04;39.90;1.00
108;DHT22;49;48.530;9.200;2022-08-04T09:56:56;39.90;1.00
108;DHT22;49;48.530;9.200;2022-08-04T09:59:26;39.60;1.00
108;DHT22;49;48.530;9.200;2022-08-04T10:01:57;39.90;1.00
108;DHT22;49;48.530;9.200;2022-08-04T10:04:28;39.80;1.00
108;DHT22;49;48.530;9.200;2022-08-04T10:07:14;39.60;1.00
108;DHT22;49;48.530;9.200;2022-08-04T10:09:56;39.40;1.00
108;DHT22;49;48.530;9.200;2022-08-04T10:12:37;39.30;1.00
108;DHT22;49;48.530;9.200;2022-08-04T10:15:14;38.90;1.00
108;DHT22;49;48.530;9.200;2022-08-04T10:20:48;39.10;1.00
108;DHT22;49;48.530;9.200;2022-08-04T10:23:26;39.30;1.00
108;DHT22;49;48.530;9.200;2022-08-04T10:26:05;39.20;1.00
108;DHT22;49;48.530;9.200;2022-08-04T10:28:43;39.40;1.00
108;DHT22;49;48.530;9.200;2022-08-04T10:31:18;39.30;1.00
108;DHT22;49;48.530;9.200;2022-08-04T10:33:50;39.20;1.00
108;DHT22;49;48.530;9.200;2022-08-04T10:36:21;39.60;1.00
108;DHT22;49;48.530;9.200;2022-08-04T10:38:56;39.80;1.00
108;DHT22;49;48.530;9.200;2022-08-04T10:41:32;39.80;1.00
108;DHT22;49;48.530;9.200;2022-08-04T10:44:13;39.90;1.00
108;DHT22;49;48.530;9.200;2022-08-04T10:46:48;39.80;1.00
108;DHT22;49;48.530;9.200;2022-08-04T10:49:22;39.80;1.00
108;DHT22;49;48.530;9.200;2022-08-04T10:51:53;39.60;1.00
108;DHT22;49;48.530;9.200;2022-08-04T10:54:28;38.50;1.00
108;DHT22;49;48.530;9.200;2022-08-04T10:57:02;37.60;1.00
108;DHT22;49;48.530;9.200;2022-08-04T10:59:38;37.90;1.00
108;DHT22;49;48.530;9.200;2022-08-04T11:02:18;37.80;1.00
108;DHT22;49;48.530;9.200;2022-08-04T11:04:57;37.80;1.00
108;DHT22;49;48.530;9.200;2022-08-04T11:07:28;37.80;1.00
108;DHT22;49;48.530;9.200;2022-08-04T11:09:56;37.50;1.00
108;DHT22;49;48.530;9.200;2022-08-04T11:12:25;37.40;1.00
108;DHT22;49;48.530;9.200;2022-08-04T11:15:00;37.70;1.00
108;DHT22;49;48.530;9.200;2022-08-04T11:17:34;37.90;1.00
108;DHT22;49;48.530;9.200;2022-08-04T11:20:11;38.40;1.00
108;DHT22;49;48.530;9.200;2022-08-04T11:22:47;38.10;1.00
108;DHT22;49;48.530;9.200;2022-08-04T11:25:19;37.50;1.00
108;DHT22;49;48.530;9.200;2022-08-04T11:27:55;37.50;1.00
108;DHT22;49;48.530;9.200;2022-08-04T11:30:30;37.80;1.00
108;DHT22;49;48.530;9.200;2022-08-04T11:33:08;38.00;1.00
108;DHT22;49;48.530;9.200;2022-08-04T11:35:43;37.90;1.00
108;DHT22;49;48.530;9.200;2022-08-04T11:38:19;37.70;1.00
108;DHT22;49;48.530;9.200;2022-08-04T11:40:50;37.90;1.00
108;DHT22;49;48.530;9.200;2022-08-04T11:43:28;38.20;1.00
108;DHT22;49;48.530;9.200;2022-08-04T11:46:05;38.50;1.00
108;DHT22;49;48.530;9.200;2022-08-04T11:48:46;38.40;1.00
108;DHT22;49;48.530;9.200;2022-08-04T11:51:17;38.80;1.00
108;DHT22;49;48.530;9.200;2022-08-04T11:53:45;38.70;1.00
108;DHT22;49;48.530;9.200;2022-08-04T11:56:15;38.80;1.00
108;DHT22;49;48.530;9.200;2022-08-04T11:58:42;38.70;1.00
108;DHT22;49;48.530;9.200;2022-08-04T12:01:19;38.50;1.00
108;DHT22;49;48.530;9.200;2022-08-04T12:04:01;38.60;1.00
108;DHT22;49;48.530;9.200;2022-08-04T12:06:35;38.60;1.00
108;DHT22;49;48.530;9.200;2022-08-04T12:09:10;38.80;1.00
108;DHT22;49;48.530;9.200;2022-08-04T12:11:51;38.80;1.00
108;DHT22;49;48.530;9.200;2022-08-04T12:14:27;38.80;1.00
108;DHT22;49;48.530;9.200;2022-08-04T12:16:59;38.80;1.00
108;DHT22;49;48.530;9.200;2022-08-04T12:19:36;38.90;1.00
108;DHT22;49;48.530;9.200;2022-08-04T12:22:09;38.90;1.00
108;DHT22;49;48.530;9.200;2022-08-04T12:24:40;38.80;1.00
108;DHT22;49;48.530;9.200;2022-08-04T12:27:13;39.00;1.00
108;DHT22;49;48.530;9.200;2022-08-04T12:29:41;39.10;1.00
108;DHT22;49;48.530;9.200;2022-08-04T12:32:19;39.10;1.00
108;DHT22;49;48.530;9.200;2022-08-04T12:34:57;39.00;1.00
108;DHT22;49;48.530;9.200;2022-08-04T12:37:39;39.00;1.00
108;DHT22;49;48.530;9.200;2022-08-04T12:40:13;38.60;1.00
108;DHT22;49;48.530;9.200;2022-08-04T12:42:44;38.70;1.00
108;DHT22;49;48.530;9.200;2022-08-04T12:45:14;38.80;1.00
108;DHT22;49;48.530;9.200;2022-08-04T12:47:45;39.00;1.00
108;DHT22;49;48.530;9.200;2022-08-04T12:50:14;39.10;1.00
108;DHT22;49;48.530;9.200;2022-08-04T12:52:46;39.10;1.00
108;DHT22;49;48.530;9.200;2022-08-04T12:55:14;39.10;1.00
108;DHT22;49;48.530;9.200;2022-08-04T12:57:43;39.20;1.00
108;DHT22;49;48.530;9.200;2022-08-04T13:00:22;39.00;1.00
108;DHT22;49;48.530;9.200;2022-08-04T13:02:53;38.80;1.00
108;DHT22;49;48.530;9.200;2022-08-04T13:05:24;38.90;1.00
108;DHT22;49;48.530;9.200;2022-08-04T13:07:53;39.00;1.00
108;DHT22;49;48.530;9.200;2022-08-04T13:10:23;39.10;1.00
108;DHT22;49;48.530;9.200;2022-08-04T13:12:55;39.10;1.00
108;DHT22;49;48.530;9.200;2022-08-04T13:15:23;39.20;1.00
108;DHT22;49;48.530;9.200;2022-08-04T13:17:55;38.90;1.00
108;DHT22;49;48.530;9.200;2022-08-04T13:20:26;38.90;1.00
108;DHT22;49;48.530;9.200;2022-08-04T13:23:03;38.90;1.00
108;DHT22;49;48.530;9.200;2022-08-04T13:25:31;39.00;1.00
108;DHT22;49;48.530;9.200;2022-08-04T13:28:00;39.00;1.00
108;DHT22;49;48.530;9.200;2022-08-04T13:30:30;39.20;1.00
108;DHT22;49;48.530;9.200;2022-08-04T13:33:02;39.20;1.00
108;DHT22;49;48.530;9.200;2022-08-04T13:35:31;39.10;1.00
108;DHT22;49;48.530;9.200;2022-08-04T13:38:01;38.80;1.00
108;DHT22;49;48.530;9.200;2022-08-04T13:40:29;38.80;1.00
108;DHT22;49;48.530;9.200;2022-08-04T13:42:57;39.00;1.00
108;DHT22;49;48.530;9.200;2022-08-04T13:45:25;39.10;1.00
108;DHT22;49;48.530;9.200;2022-08-04T13:47:58;39.20;1.00
108;DHT22;49;48.530;9.200;2022-08-04T13:52:58;39.60;1.00
108;DHT22;49;48.530;9.200;2022-08-04T13:55:28;39.70;1.00
108;DHT22;49;48.530;9.200;2022-08-04T13:58:04;39.60;1.00
108;DHT22;49;48.530;9.200;2022-08-04T14:00:41;39.50;1.00
108;DHT22;49;48.530;9.200;2022-08-04T14:03:13;39.60;1.00
108;DHT22;49;48.530;9.200;2022-08-04T14:08:21;39.80;1.00
108;DHT22;49;48.530;9.200;2022-08-04T14:13:28;40.20;1.00
108;DHT22;49;48.530;9.200;2022-08-04T14:15:56;39.70;1.00
108;DHT22;49;48.530;9.200;2022-08-04T14:18:25;39.20;1.00
108;DHT22;49;48.530;9.200;2022-08-04T14:21:05;38.50;1.00
108;DHT22;49;48.530;9.200;2022-08-04T14:23:44;38.00;1.00
108;DHT22;49;48.530;9.200;2022-08-04T14:26:14;37.80;1.00
108;DHT22;49;48.530;9.200;2022-08-04T14:28:41;37.40;1.00
108;DHT22;49;48.530;9.200;2022-08-04T14:31:09;37.40;1.00
108;DHT22;49;48.530;9.200;2022-08-04T14:33:37;37.50;1.00
108;DHT22;49;48.530;9.200;2022-08-04T14:36:05;37.50;1.00
108;DHT22;49;48.530;9.200;2022-08-04T14:38:51;37.20;1.00
108;DHT22;49;48.530;9.200;2022-08-04T14:41:21;37.20;1.00
108;DHT22;49;48.530;9.200;2022-08-04T14:43:51;37.10;1.00
108;DHT22;49;48.530;9.200;2022-08-04T14:46:21;37.40;1.00
108;DHT22;49;48.530;9.200;2022-08-04T14:49:06;37.50;1.00
108;DHT22;49;48.530;9.200;2022-08-04T14:51:35;37.20;1.00
108;DHT22;49;48.530;9.200;2022-08-04T14:54:04;37.30;1.00
108;DHT22;49;48.530;9.200;2022-08-04T14:56:32;37.40;1.00
108;DHT22;49;48.530;9.200;2022-08-04T14:59:01;37.60;1.00
108;DHT22;49;48.530;9.200;2022-08-04T15:01:29;37.90;1.00
108;DHT22;49;48.530;9.200;2022-08-04T15:04:00;37.50;1.00
108;DHT22;49;48.530;9.200;2022-08-04T15:06:29;37.30;1.00
108;DHT22;49;48.530;9.200;2022-08-04T15:08:58;37.10;1.00
108;DHT22;49;48.530;9.200;2022-08-04T15:11:27;36.80;1.00
108;DHT22;49;48.530;9.200;2022-08-04T15:13:56;36.80;1.00
108;DHT22;49;48.530;9.200;2022-08-04T15:16:25;37.00;1.00
108;DHT22;49;48.530;9.200;2022-08-04T15:18:53;37.50;1.00
108;DHT22;49;48.530;9.200;2022-08-04T15:21:21;37.30;1.00
108;DHT22;49;48.530;9.200;2022-08-04T15:23:48;37.40;1.00
108;DHT22;49;48.530;9.200;2022-08-04T15:26:17;37.30;1.00
108;DHT22;49;48.530;9.200;2022-08-04T15:28:53;37.30;1.00
108;DHT22;49;48.530;9.200;2022-08-04T15:31:22;37.60;1.00
108;DHT22;49;48.530;9.200;2022-08-04T15:33:50;37.30;1.00
108;DHT22;49;48.530;9.200;2022-08-04T15:36:24;37.20;1.00
108;DHT22;49;48.530;9.200;2022-08-04T15:39:00;36.90;1.00
108;DHT22;49;48.530;9.200;2022-08-04T15:41:37;36.70;1.00
108;DHT22;49;48.530;9.200;2022-08-04T15:44:29;36.50;1.00
108;DHT22;49;48.530;9.200;2022-08-04T15:47:20;36.80;1.00
108;DHT22;49;48.530;9.200;2022-08-04T15:50:02;36.80;1.00
108;DHT22;49;48.530;9.200;2022-08-04T15:53:03;37.00;1.00
108;DHT22;49;48.530;9.200;2022-08-04T15:55:34;37.40;1.00
108;DHT22;49;48.530;9.200;2022-08-04T15:58:02;37.40;1.00
108;DHT22;49;48.530;9.200;2022-08-04T16:03:45;37.20;1.00
108;DHT22;49;48.530;9.200;2022-08-04T16:09:25;36.80;1.00
108;DHT22;49;48.530;9.200;2022-08-04T16:11:53;36.80;1.00
108;DHT22;49;48.530;9.200;2022-08-04T16:14:33;36.90;1.00
108;DHT22;49;48.530;9.200;2022-08-04T16:17:21;36.80;1.00
108;DHT22;49;48.530;9.200;2022-08-04T16:20:01;36.80;1.00
108;DHT22;49;48.530;9.200;2022-08-04T16:22:34;37.00;1.00
108;DHT22;49;48.530;9.200;2022-08-04T16:25:03;36.90;1.00
108;DHT22;49;48.530;9.200;2022-08-04T16:27:36;36.80;1.00
108;DHT22;49;48.530;9.200;2022-08-04T16:30:04;36.80;1.00
108;DHT22;49;48.530;9.200;2022-08-04T16:32:39;36.80;1.00
108;DHT22;49;48.530;9.200;2022-08-04T16:35:28;36.60;1.00
108;DHT22;49;48.530;9.200;2022-08-04T16:38:11;36.50;1.00
108;DHT22;49;48.530;9.200;2022-08-04T16:40:40;36.70;1.00
108;DHT22;49;48.530;9.200;2022-08-04T16:43:11;36.80;1.00
108;DHT22;49;48.530;9.200;2022-08-04T16:45:40;36.80;1.00
108;DHT22;49;48.530;9.200;2022-08-04T16:48:08;36.90;1.00
108;DHT22;49;48.530;9.200;2022-08-04T16:50:56;36.80;1.00
108;DHT22;49;48.530;9.200;2022-08-04T16:53:25;36.50;1.00
108;DHT22;49;48.530;9.200;2022-08-04T16:55:54;36.30;1.00
108;DHT22;49;48.530;9.200;2022-08-04T16:58:27;36.30;1.00
108;DHT22;49;48.530;9.200;2022-08-04T17:00:55;36.20;1.00
108;DHT22;49;48.530;9.200;2022-08-04T17:03:22;36.50;1.00
108;DHT22;49;48.530;9.200;2022-08-04T17:06:04;36.40;1.00
108;DHT22;49;48.530;9.200;2022-08-04T17:08:31;36.50;1.00
108;DHT22;49;48.530;9.200;2022-08-04T17:11:00;36.50;1.00
108;DHT22;49;48.530;9.200;2022-08-04T17:13:29;36.70;1.00
108;DHT22;49;48.530;9.200;2022-08-04T17:15:57;36.50;1.00
108;DHT22;49;48.530;9.200;2022-08-04T17:18:26;36.20;1.00
108;DHT22;49;48.530;9.200;2022-08-04T17:20:57;36.20;1.00
108;DHT22;49;48.530;9.200;2022-08-04T17:23:32;36.20;1.00
108;DHT22;49;48.530;9.200;2022-08-04T17:26:02;36.20;1.00
108;DHT22;49;48.530;9.200;2022-08-04T17:28:30;36.30;1.00
108;DHT22;49;48.530;9.200;2022-08-04T17:31:00;36.70;1.00
108;DHT22;49;48.530;9.200;2022-08-04T17:33:27;36.60;1.00
108;DHT22;49;48.530;9.200;2022-08-04T17:35:58;36.30;1.00
108;DHT22;49;48.530;9.200;2022-08-04T17:38:33;36.50;1.00
108;DHT22;49;48.530;9.200;2022-08-04T17:41:03;36.70;1.00
108;DHT22;49;48.530;9.200;2022-08-04T17:43:42;36.50;1.00
108;DHT22;49;48.530;9.200;2022-08-04T17:46:13;36.40;1.00
108;DHT22;49;48.530;9.200;2022-08-04T17:48:41;36.40;1.00
108;DHT22;49;48.530;9.200;2022-08-04T17:51:13;36.40;1.00
108;DHT22;49;48.530;9.200;2022-08-04T17:53:40;36.60;1.00
108;DHT22;49;48.530;9.200;2022-08-04T17:56:31;36.70;1.00
108;DHT22;49;48.530;9.200;2022-08-04T17:59:07;36.80;1.00
108;DHT22;49;48.530;9.200;2022-08-04T18:02:01;37.00;1.00
108;DHT22;49;48.530;9.200;2022-08-04T18:04:36;37.10;1.00
108;DHT22;49;48.530;9.200;2022-08-04T18:07:09;37.10;1.00
108;DHT22;49;48.530;9.200;2022-08-04T18:09:38;37.10;1.00
108;DHT22;49;48.530;9.200;2022-08-04T18:12:08;37.30;1.00
108;DHT22;49;48.530;9.200;2022-08-04T18:14:41;37.20;1.00
108;DHT22;49;48.530;9.200;2022-08-04T18:17:08;37.20;1.00
108;DHT22;49;48.530;9.200;2022-08-04T18:19:36;37.10;1.00
108;DHT22;49;48.530;9.200;2022-08-04T18:22:07;37.10;1.00
108;DHT22;49;48.530;9.200;2022-08-04T18:24:34;37.00;1.00
108;DHT22;49;48.530;9.200;2022-08-04T18:27:01;36.90;1.00
108;DHT22;49;48.530;9.200;2022-08-04T18:29:28;36.90;1.00
108;DHT22;49;48.530;9.200;2022-08-04T18:31:55;36.70;1.00
108;DHT22;49;48.530;9.200;2022-08-04T18:34:22;36.50;1.00
108;DHT22;49;48.530;9.200;2022-08-04T18:36:49;36.40;1.00
108;DHT22;49;48.530;9.200;2022-08-04T18:39:17;36.40;1.00
108;DHT22;49;48.530;9.200;2022-08-04T18:41:45;36.30;1.00
108;DHT22;49;48.530;9.200;2022-08-04T18:44:12;36.20;1.00
108;DHT22;49;48.530;9.200;2022-08-04T18:46:39;36.20;1.00
108;DHT22;49;48.530;9.200;2022-08-04T18:49:07;36.10;1.00
108;DHT22;49;48.530;9.200;2022-08-04T18:51:35;35.90;1.00
108;DHT22;49;48.530;9.200;2022-08-04T18:54:02;35.90;1.00
108;DHT22;49;48.530;9.200;2022-08-04T18:56:31;35.80;1.00